Search for airport 
image banner adimage banner adimage banner ad
image banner ad

8C6 - Traer Muni

Located in Traer, United States

ICAO - 8C6, IATA -

Data provided by Airmate  

General information

Coordinates: N42°12'3" W92°27'24"
Elevation is 892 feet MSL.
Magnetic variation is 03° East
View others Airports in Iowa

Operational data

Special qualification required
Current time UTC:
Current local time:
METAR: KVTI 231435Z AUTO 32004KT 10SM CLR 13/09 A3014 RMK AO2 T01340085
View NOTAMs / SUP AIP / TFR affecting this airport [VIEW]
Communications frequencies: [VIEW]

Runways:

RWY identifierQFULength (ft)Width (ft)SurfaceLDA (ft)
17181°2555100GRASS
352555100GRASS

Airport contact information

Address: Traer United States

Satellite view of 8C6